Time;durP1;ratioP1;P1;durP2;ratioP2;P2;SDS_P1;SDS_P2;PMS_P1;PMS_P2;Temp;Humidity;BMP_temperature;BMP_pressure;BME280_temperature;BME280_humidity;BME280_pressure;Samples;Min_cycle;Max_cycle;Signal;HPM_P1;HPM_P2
2022/05/31 00:00:13;;;;;;;2.67;1.10;;;;;;;;;;4978446;28;20038;-83
2022/05/31 00:02:39;;;;;;;2.00;1.00;;;;;;;;;;4986846;28;20046;-83
2022/05/31 00:05:05;;;;;;;2.20;1.30;;;;;;;;;;4993908;28;20374;-83
2022/05/31 00:07:31;;;;;;;2.42;1.10;;;;;;;;;;4981991;28;20105;-82
2022/05/31 00:09:56;;;;;;;3.20;0.88;;;;;;;;;;4994281;28;20038;-82
2022/05/31 00:12:21;;;;;;;1.80;1.00;;;;;;;;;;4981030;28;20030;-82
2022/05/31 00:14:47;;;;;;;4.35;1.13;;;;;;;;;;4992167;28;20520;-81
2022/05/31 00:17:12;;;;;;;2.30;0.93;;;;;;;;;;4993219;28;20030;-82
2022/05/31 00:19:37;;;;;;;2.00;0.95;;;;;;;;;;4980145;28;20421;-81
2022/05/31 00:22:07;;;;;;;3.17;1.10;;;;;;;;;;4987043;28;20038;-82
2022/05/31 00:24:33;;;;;;;1.98;1.02;;;;;;;;;;4995406;28;20489;-81
2022/05/31 00:26:58;;;;;;;2.15;1.00;;;;;;;;;;4978641;28;20042;-81
2022/05/31 00:29:24;;;;;;;2.45;1.02;;;;;;;;;;4987079;28;20559;-81
2022/05/31 00:31:50;;;;;;;1.85;0.93;;;;;;;;;;4976463;28;20040;-82
2022/05/31 00:34:16;;;;;;;2.55;0.85;;;;;;;;;;4996830;28;20536;-81
2022/05/31 00:36:45;;;;;;;2.22;1.10;;;;;;;;;;4976600;28;20038;-81
2022/05/31 00:39:11;;;;;;;1.88;1.02;;;;;;;;;;4986918;28;20033;-81
2022/05/31 00:41:36;;;;;;;2.53;0.90;;;;;;;;;;4982146;28;20478;-82
2022/05/31 00:44:10;;;;;;;2.83;1.00;;;;;;;;;;4987689;28;20153;-82
2022/05/31 00:46:55;;;;;;;2.85;0.80;;;;;;;;;;4977930;28;20156;-81
2022/05/31 00:49:31;;;;;;;2.50;1.10;;;;;;;;;;4966257;28;20027;-82
2022/05/31 00:51:59;;;;;;;3.63;1.00;;;;;;;;;;4991287;28;20041;-81
2022/05/31 00:54:28;;;;;;;1.50;0.80;;;;;;;;;;4992851;28;20034;-81
2022/05/31 00:56:56;;;;;;;3.08;1.20;;;;;;;;;;4980105;28;20478;-81
2022/05/31 00:59:31;;;;;;;2.83;1.30;;;;;;;;;;4979683;28;20045;-82
2022/05/31 01:01:56;;;;;;;2.13;0.93;;;;;;;;;;4992538;28;20038;-82
2022/05/31 01:04:45;;;;;;;2.20;1.00;;;;;;;;;;4993895;28;20041;-81
2022/05/31 01:07:10;;;;;;;2.47;0.90;;;;;;;;;;4976605;28;20034;-82
2022/05/31 01:09:56;;;;;;;2.17;1.00;;;;;;;;;;4976765;28;20058;-82
2022/05/31 01:12:22;;;;;;;2.08;1.05;;;;;;;;;;4960976;28;20038;-82
2022/05/31 01:14:48;;;;;;;1.88;0.90;;;;;;;;;;4945941;28;20494;-82
2022/05/31 01:17:17;;;;;;;2.25;0.98;;;;;;;;;;4949773;28;20082;-82
2022/05/31 01:19:56;;;;;;;3.10;0.88;;;;;;;;;;4939999;28;20545;-81
2022/05/31 01:22:34;;;;;;;1.70;1.02;;;;;;;;;;4947288;28;20465;-83
2022/05/31 01:25:25;;;;;;;2.55;0.90;;;;;;;;;;4963375;28;20050;-81
2022/05/31 01:28:02;;;;;;;2.25;0.80;;;;;;;;;;4963303;28;20133;-81
2022/05/31 01:30:34;;;;;;;3.60;1.25;;;;;;;;;;4961506;28;20829;-81
2022/05/31 01:33:31;;;;;;;2.80;1.05;;;;;;;;;;4944189;28;20606;-82
2022/05/31 01:36:09;;;;;;;2.70;1.10;;;;;;;;;;4941888;28;20306;-82
2022/05/31 01:38:42;;;;;;;1.60;0.85;;;;;;;;;;4956913;28;20557;-81
2022/05/31 01:41:20;;;;;;;2.08;1.05;;;;;;;;;;4948547;28;20042;-81
2022/05/31 01:43:48;;;;;;;2.25;1.10;;;;;;;;;;4950011;28;20053;-81
2022/05/31 01:46:24;;;;;;;1.95;0.90;;;;;;;;;;4949442;28;20609;-83
2022/05/31 01:48:50;;;;;;;2.53;1.10;;;;;;;;;;4945458;28;20501;-81
2022/05/31 01:51:18;;;;;;;2.28;1.17;;;;;;;;;;4966618;28;20153;-82
2022/05/31 01:53:44;;;;;;;2.95;1.00;;;;;;;;;;4992660;28;20493;-82
2022/05/31 01:56:10;;;;;;;2.33;1.10;;;;;;;;;;4978495;28;20130;-84
2022/05/31 01:58:38;;;;;;;2.47;1.20;;;;;;;;;;4992091;28;20069;-81
2022/05/31 02:01:04;;;;;;;2.60;0.95;;;;;;;;;;4977834;28;20073;-81
2022/05/31 02:03:30;;;;;;;1.55;0.70;;;;;;;;;;4979363;28;20035;-82
2022/05/31 02:05:56;;;;;;;2.47;0.95;;;;;;;;;;4995725;28;20026;-81
2022/05/31 02:08:24;;;;;;;2.38;1.15;;;;;;;;;;4977939;28;20030;-80
2022/05/31 02:10:49;;;;;;;2.90;1.23;;;;;;;;;;4991185;28;20030;-83
2022/05/31 02:13:16;;;;;;;2.03;1.02;;;;;;;;;;4985851;28;20044;-82
2022/05/31 02:15:42;;;;;;;2.90;1.20;;;;;;;;;;4991432;28;20045;-81
2022/05/31 02:18:09;;;;;;;3.10;1.13;;;;;;;;;;4965483;28;20105;-81
2022/05/31 02:20:34;;;;;;;2.67;1.30;;;;;;;;;;4958075;28;20034;-83
2022/05/31 02:22:59;;;;;;;1.95;0.98;;;;;;;;;;4976877;28;20045;-82
2022/05/31 02:25:25;;;;;;;2.88;1.13;;;;;;;;;;4978181;28;20035;-81
2022/05/31 02:27:51;;;;;;;2.58;1.20;;;;;;;;;;4976997;28;20054;-81
2022/05/31 02:30:16;;;;;;;2.13;1.05;;;;;;;;;;4975177;28;20040;-82
2022/05/31 02:32:42;;;;;;;3.03;1.25;;;;;;;;;;4978541;28;20065;-80
2022/05/31 02:35:09;;;;;;;3.00;1.00;;;;;;;;;;4994593;28;20112;-81
2022/05/31 02:37:35;;;;;;;4.25;1.30;;;;;;;;;;4997004;28;20038;-81
2022/05/31 02:40:00;;;;;;;2.60;1.23;;;;;;;;;;4983549;28;20046;-82
2022/05/31 02:42:26;;;;;;;3.60;1.38;;;;;;;;;;4974396;28;20041;-81
2022/05/31 02:44:51;;;;;;;2.60;1.20;;;;;;;;;;4976897;28;20041;-81
2022/05/31 02:47:18;;;;;;;2.55;1.20;;;;;;;;;;4990483;28;20136;-82
2022/05/31 02:49:44;;;;;;;1.77;1.00;;;;;;;;;;4988657;28;20168;-81
2022/05/31 02:52:09;;;;;;;3.08;1.40;;;;;;;;;;4996082;28;20038;-82
2022/05/31 02:54:35;;;;;;;2.67;1.15;;;;;;;;;;4960805;28;20038;-81
2022/05/31 02:57:00;;;;;;;2.00;0.95;;;;;;;;;;4980169;28;20050;-80
2022/05/31 02:59:25;;;;;;;2.10;1.00;;;;;;;;;;4995176;28;20039;-81
2022/05/31 03:01:51;;;;;;;2.38;0.93;;;;;;;;;;4982657;28;20440;-80
2022/05/31 03:04:17;;;;;;;2.35;1.08;;;;;;;;;;4994480;28;20501;-81
2022/05/31 03:06:43;;;;;;;3.35;1.48;;;;;;;;;;4993546;28;20481;-89
2022/05/31 03:09:09;;;;;;;2.35;1.20;;;;;;;;;;4995007;28;20049;-89
2022/05/31 03:11:48;;;;;;;2.95;1.38;;;;;;;;;;4998628;28;20042;-87
2022/05/31 03:14:19;;;;;;;4.32;1.30;;;;;;;;;;4986950;28;20041;-88
2022/05/31 03:16:46;;;;;;;3.05;1.10;;;;;;;;;;4979128;28;20124;-88
2022/05/31 03:19:17;;;;;;;3.35;1.33;;;;;;;;;;4995078;28;20045;-87
2022/05/31 03:21:50;;;;;;;2.40;1.10;;;;;;;;;;4997611;28;20038;-86
2022/05/31 03:24:22;;;;;;;2.63;1.00;;;;;;;;;;4982400;28;20493;-88
2022/05/31 03:26:50;;;;;;;3.35;1.63;;;;;;;;;;4981152;28;20438;-84
2022/05/31 03:29:16;;;;;;;;;;;;;;;;;;4981521;28;20041;-84
2022/05/31 03:31:41;;;;;;;2.10;1.00;;;;;;;;;;4980055;28;20179;-83
2022/05/31 03:34:06;;;;;;;1.77;0.93;;;;;;;;;;4992115;28;20038;-83
2022/05/31 03:36:32;;;;;;;3.10;1.33;;;;;;;;;;4970427;28;20034;-85
2022/05/31 03:38:57;;;;;;;2.63;1.23;;;;;;;;;;4978990;28;20065;-84
2022/05/31 03:41:22;;;;;;;3.20;1.35;;;;;;;;;;4993555;28;20038;-86
2022/05/31 03:43:48;;;;;;;2.30;0.93;;;;;;;;;;4996221;28;20042;-87
2022/05/31 03:46:15;;;;;;;4.65;1.38;;;;;;;;;;4982942;28;20033;-89
2022/05/31 03:48:40;;;;;;;2.90;1.30;;;;;;;;;;4979698;28;20096;-89
2022/05/31 03:51:08;;;;;;;2.70;0.90;;;;;;;;;;4984144;28;20041;-89
2022/05/31 03:53:36;;;;;;;;;;;;;;;;;;4996733;28;20114;-87
2022/05/31 03:56:02;;;;;;;;;;;;;;;;;;5005880;28;19918;-88
2022/05/31 03:58:27;;;;;;;;;;;;;;;;;;4994011;28;20369;-88
2022/05/31 04:00:52;;;;;;;;;;;;;;;;;;4977897;28;19920;-86
2022/05/31 04:03:18;;;;;;;;;;;;;;;;;;4998498;28;19917;-87
2022/05/31 04:05:44;;;;;;;;;;;;;;;;;;4985341;28;19914;-86
2022/05/31 04:08:11;;;;;;;;;;;;;;;;;;4992050;28;20792;-86
2022/05/31 04:10:36;;;;;;;;;;;;;;;;;;4965690;28;19930;-87
2022/05/31 04:13:01;;;;;;;;;;;;;;;;;;5004325;28;20273;-87
2022/05/31 04:15:27;;;;;;;;;;;;;;;;;;4994582;28;19922;-87
2022/05/31 04:17:55;;;;;;;;;;;;;;;;;;4984491;28;20460;-86
2022/05/31 04:20:24;;;;;;;;;;;;;;;;;;4970294;28;20258;-86
2022/05/31 04:22:49;;;;;;;;;;;;;;;;;;4982484;28;19917;-85
2022/05/31 04:25:14;;;;;;;;;;;;;;;;;;4995506;28;19922;-86
2022/05/31 04:27:42;;;;;;;;;;;;;;;;;;5006635;28;20292;-88
2022/05/31 04:30:08;;;;;;;;;;;;;;;;;;4985583;28;20293;-87
2022/05/31 04:32:33;;;;;;;;;;;;;;;;;;4994373;28;19913;-88
2022/05/31 04:34:58;;;;;;;;;;;;;;;;;;4993542;28;19921;-88
2022/05/31 04:37:23;;;;;;;;;;;;;;;;;;4986351;28;19914;-87
2022/05/31 04:39:49;;;;;;;;;;;;;;;;;;5009035;28;20600;-87
2022/05/31 04:42:16;;;;;;;;;;;;;;;;;;4972390;28;20756;-88
2022/05/31 04:44:41;;;;;;;;;;;;;;;;;;4963857;28;20645;-88
2022/05/31 04:47:06;;;;;;;;;;;;;;;;;;4980944;28;19965;-86
2022/05/31 04:49:31;;;;;;;;;;;;;;;;;;4973512;28;19924;-87
2022/05/31 04:51:56;;;;;;;;;;;;;;;;;;4997307;28;19975;-88
2022/05/31 04:54:24;;;;;;;;;;;;;;;;;;4991700;28;19961;-89
2022/05/31 04:56:49;;;;;;;;;;;;;;;;;;4981930;28;20355;-86
2022/05/31 04:59:14;;;;;;;;;;;;;;;;;;4993704;28;21698;-87
2022/05/31 05:01:39;;;;;;;;;;;;;;;;;;4976561;28;20052;-87
2022/05/31 05:04:04;;;;;;;;;;;;;;;;;;4995694;28;19939;-87
2022/05/31 05:06:30;;;;;;;;;;;;;;;;;;5006140;28;20644;-86
2022/05/31 05:08:55;;;;;;;;;;;;;;;;;;4989930;28;20021;-87
2022/05/31 05:11:21;;;;;;;;;;;;;;;;;;4994839;28;19925;-88
2022/05/31 05:13:46;;;;;;;;;;;;;;;;;;4994336;28;20253;-87
2022/05/31 05:16:11;;;;;;;;;;;;;;;;;;4975063;28;19928;-87
2022/05/31 05:18:37;;;;;;;;;;;;;;;;;;4968747;28;20296;-88
2022/05/31 05:21:03;;;;;;;;;;;;;;;;;;4974816;28;19914;-87
2022/05/31 05:23:28;;;;;;;;;;;;;;;;;;4994292;28;19996;-88
2022/05/31 05:25:54;;;;;;;;;;;;;;;;;;4994053;28;19918;-89
2022/05/31 05:31:05;;;;;;;;;;;;;;;;;;4995069;28;19937;-89
2022/05/31 05:33:31;;;;;;;;;;;;;;;;;;4979733;28;20357;-88
2022/05/31 05:35:57;;;;;;;;;;;;;;;;;;4980056;28;19917;-90
2022/05/31 05:38:22;;;;;;;;;;;;;;;;;;4990512;28;19922;-87
2022/05/31 05:40:47;;;;;;;;;;;;;;;;;;4998133;28;20283;-83
2022/05/31 05:43:13;;;;;;;;;;;;;;;;;;4967700;28;20344;-86
2022/05/31 05:45:41;;;;;;;;;;;;;;;;;;4971321;28;19917;-86
2022/05/31 05:48:06;;;;;;;;;;;;;;;;;;4978023;28;19914;-87
2022/05/31 05:50:35;;;;;;;;;;;;;;;;;;4979880;28;19923;-88
2022/05/31 05:53:01;;;;;;;;;;;;;;;;;;4985562;28;20005;-87
2022/05/31 05:55:30;;;;;;;;;;;;;;;;;;4965822;28;19921;-86
2022/05/31 05:57:55;;;;;;;;;;;;;;;;;;4979592;28;19923;-87
2022/05/31 06:00:21;;;;;;;;;;;;;;;;;;4985958;28;20292;-87
2022/05/31 06:02:47;;;;;;;;;;;;;;;;;;4979511;28;19924;-84
2022/05/31 06:05:14;;;;;;;;;;;;;;;;;;4980000;28;19925;-85
2022/05/31 06:07:48;;;;;;;;;;;;;;;;;;4994665;28;19928;-84
2022/05/31 06:10:20;;;;;;;;;;;;;;;;;;4985364;28;20512;-84
2022/05/31 06:12:51;;;;;;;;;;;;;;;;;;4980558;28;20778;-83
2022/05/31 06:15:27;;;;;;;;;;;;;;;;;;4996240;28;19984;-85
2022/05/31 06:17:53;;;;;;;;;;;;;;;;;;4992192;28;19921;-86
2022/05/31 06:20:19;;;;;;;;;;;;;;;;;;4979679;28;19924;-85
2022/05/31 06:22:44;;;;;;;;;;;;;;;;;;4981807;28;20044;-86
2022/05/31 06:25:11;;;;;;;;;;;;;;;;;;4986325;28;20238;-84
2022/05/31 06:27:36;;;;;;;;;;;;;;;;;;4985845;28;19979;-84
2022/05/31 06:30:02;;;;;;;;;;;;;;;;;;4976507;28;20357;-85
2022/05/31 06:32:30;;;;;;;;;;;;;;;;;;4990981;28;20036;-84
2022/05/31 06:34:55;;;;;;;;;;;;;;;;;;4980143;28;19951;-87
2022/05/31 06:37:20;;;;;;;;;;;;;;;;;;5001097;28;20381;-87
2022/05/31 06:39:45;;;;;;;;;;;;;;;;;;5004430;28;19952;-88
2022/05/31 06:42:11;;;;;;;;;;;;;;;;;;4979648;28;19920;-88
2022/05/31 06:44:39;;;;;;;;;;;;;;;;;;4981002;28;19925;-90
2022/05/31 06:47:05;;;;;;;;;;;;;;;;;;5001813;28;20412;-89
2022/05/31 06:49:31;;;;;;;;;;;;;;;;;;4994668;28;19918;-88
2022/05/31 06:57:31;;;;;;;;;;;;;;;;;;4989808;28;19925;-87
2022/05/31 06:59:57;;;;;;;;;;;;;;;;;;4987913;28;19918;-88
2022/05/31 07:02:22;;;;;;;;;;;;;;;;;;4981558;28;19969;-87
2022/05/31 07:04:48;;;;;;;;;;;;;;;;;;5003177;28;19975;-89
2022/05/31 07:07:13;;;;;;;;;;;;;;;;;;4979827;28;19917;-88
2022/05/31 07:09:39;;;;;;;;;;;;;;;;;;4983314;28;20296;-87
2022/05/31 07:12:04;;;;;;;;;;;;;;;;;;4977706;28;19921;-90
2022/05/31 07:14:29;;;;;;;;;;;;;;;;;;4977842;28;19953;-86
2022/05/31 07:16:54;;;;;;;;;;;;;;;;;;4981138;28;20587;-87
2022/05/31 07:19:20;;;;;;;;;;;;;;;;;;4968735;28;19917;-86
2022/05/31 07:21:45;;;;;;;;;;;;;;;;;;5000161;28;20284;-89
2022/05/31 07:24:10;;;;;;;;;;;;;;;;;;4990296;28;19918;-86
2022/05/31 07:26:38;;;;;;;;;;;;;;;;;;5004920;28;20385;-86
2022/05/31 07:29:03;;;;;;;;;;;;;;;;;;4986311;28;19917;-88
2022/05/31 07:31:28;;;;;;;;;;;;;;;;;;4981850;28;20336;-88
2022/05/31 07:33:54;;;;;;;;;;;;;;;;;;4990229;28;19922;-89
2022/05/31 07:36:19;;;;;;;;;;;;;;;;;;4989608;28;19967;-89
2022/05/31 07:38:45;;;;;;;;;;;;;;;;;;4987224;28;19931;-87
2022/05/31 07:41:10;;;;;;;;;;;;;;;;;;4982402;28;20458;-86
2022/05/31 07:43:35;;;;;;;;;;;;;;;;;;4986249;28;19936;-86
2022/05/31 07:46:06;;;;;;;;;;;;;;;;;;4984975;28;19917;-85
2022/05/31 07:48:34;;;;;;;;;;;;;;;;;;4983412;28;20399;-88
2022/05/31 07:50:59;;;;;;;;;;;;;;;;;;4976898;28;19917;-90
2022/05/31 07:53:24;;;;;;;;;;;;;;;;;;4979437;28;19965;-88
2022/05/31 07:55:53;;;;;;;;;;;;;;;;;;4975521;28;20448;-86
2022/05/31 07:58:31;;;;;;;;;;;;;;;;;;5006685;28;19917;-90
2022/05/31 08:00:56;;;;;;;;;;;;;;;;;;4978323;28;20355;-85
2022/05/31 08:03:21;;;;;;;;;;;;;;;;;;4983689;28;19953;-88
2022/05/31 08:05:46;;;;;;;;;;;;;;;;;;4982713;28;20084;-86
2022/05/31 08:08:12;;;;;;;;;;;;;;;;;;4986134;28;19913;-87
2022/05/31 08:10:37;;;;;;;;;;;;;;;;;;4980860;28;19968;-86
2022/05/31 08:13:02;;;;;;;;;;;;;;;;;;4987899;28;19909;-89
2022/05/31 08:15:27;;;;;;;;;;;;;;;;;;4988457;28;19972;-88
2022/05/31 08:17:52;;;;;;;;;;;;;;;;;;4983434;28;20281;-89
2022/05/31 08:20:18;;;;;;;;;;;;;;;;;;4981145;28;20000;-88
2022/05/31 08:22:45;;;;;;;;;;;;;;;;;;4987131;28;19924;-89
2022/05/31 08:25:11;;;;;;;;;;;;;;;;;;4977086;28;20421;-86
2022/05/31 08:27:36;;;;;;;;;;;;;;;;;;4978954;28;20019;-89
2022/05/31 08:30:03;;;;;;;;;;;;;;;;;;4995499;28;19917;-89
2022/05/31 08:32:32;;;;;;;;;;;;;;;;;;4967183;28;19918;-88
2022/05/31 08:34:57;;;;;;;;;;;;;;;;;;5002408;28;19963;-90
2022/05/31 08:37:22;;;;;;;;;;;;;;;;;;4988675;28;19952;-89
2022/05/31 08:39:48;;;;;;;;;;;;;;;;;;4985443;28;20407;-89
2022/05/31 08:42:14;;;;;;;;;;;;;;;;;;4982670;28;19917;-89
2022/05/31 08:44:48;;;;;;;;;;;;;;;;;;4991036;28;19918;-90
2022/05/31 08:47:13;;;;;;;;;;;;;;;;;;4997068;28;19918;-89
2022/05/31 08:52:28;;;;;;;;;;;;;;;;;;4993433;28;19923;-89
2022/05/31 08:57:51;;;;;;;;;;;;;;;;;;5000188;28;20304;-89
2022/05/31 09:00:18;;;;;;;;;;;;;;;;;;4996192;28;20284;-91
2022/05/31 09:02:48;;;;;;;;;;;;;;;;;;4983012;28;20273;-90
2022/05/31 09:05:24;;;;;;;;;;;;;;;;;;4980104;28;19924;-90
2022/05/31 09:07:53;;;;;;;;;;;;;;;;;;4982105;28;20925;-90
2022/05/31 09:10:21;;;;;;;;;;;;;;;;;;4981035;28;19933;-88
2022/05/31 09:12:53;;;;;;;;;;;;;;;;;;4993021;28;19995;-88
2022/05/31 09:15:21;;;;;;;;;;;;;;;;;;4992142;28;20766;-89
2022/05/31 09:18:05;;;;;;;;;;;;;;;;;;4995007;28;20325;-85
2022/05/31 09:20:46;;;;;;;;;;;;;;;;;;4995511;28;19918;-90
2022/05/31 09:23:11;;;;;;;;;;;;;;;;;;4972041;28;20377;-90
2022/05/31 09:25:40;;;;;;;;;;;;;;;;;;4997006;28;19925;-90
2022/05/31 09:28:08;;;;;;;;;;;;;;;;;;4979736;28;20531;-90
2022/05/31 09:30:37;;;;;;;;;;;;;;;;;;4980874;28;20008;-89
2022/05/31 09:33:04;;;;;;;;;;;;;;;;;;4979290;28;20369;-89
2022/05/31 09:35:50;;;;;;;;;;;;;;;;;;4988634;28;19932;-90
2022/05/31 09:38:22;;;;;;;;;;;;;;;;;;5011861;28;19918;-90
2022/05/31 09:41:05;;;;;;;;;;;;;;;;;;4994664;28;19924;-89
2022/05/31 09:43:43;;;;;;;;;;;;;;;;;;4992419;28;19917;-88
2022/05/31 09:46:15;;;;;;;;;;;;;;;;;;4984989;28;19918;-88
2022/05/31 09:48:44;;;;;;;;;;;;;;;;;;4980370;28;20388;-90
2022/05/31 09:51:13;;;;;;;;;;;;;;;;;;4980328;28;19913;-88
2022/05/31 09:59:10;;;;;;;;;;;;;;;;;;5000034;28;19924;-86
2022/05/31 10:01:45;;;;;;;;;;;;;;;;;;4968709;28;19925;-88
2022/05/31 10:04:12;;;;;;;;;;;;;;;;;;4973458;28;20004;-89
2022/05/31 10:07:01;;;;;;;;;;;;;;;;;;4980614;28;19921;-88
2022/05/31 10:09:34;;;;;;;;;;;;;;;;;;4969163;28;20523;-87
2022/05/31 10:12:03;;;;;;;;;;;;;;;;;;4981627;28;20447;-90
2022/05/31 10:14:33;;;;;;;;;;;;;;;;;;4993697;28;19925;-88
2022/05/31 10:17:13;;;;;;;;;;;;;;;;;;4986269;28;19917;-80
2022/05/31 10:19:38;;;;;;;;;;;;;;;;;;4977964;28;19928;-82
2022/05/31 10:22:14;;;;;;;;;;;;;;;;;;4984761;28;20632;-82
2022/05/31 10:24:39;;;;;;;;;;;;;;;;;;4967599;28;19985;-82
2022/05/31 10:27:07;;;;;;;;;;;;;;;;;;4972297;28;20320;-82
2022/05/31 10:29:36;;;;;;;;;;;;;;;;;;4994160;28;19964;-84
2022/05/31 10:32:01;;;;;;;;;;;;;;;;;;5000510;28;19913;-82
2022/05/31 10:34:31;;;;;;;;;;;;;;;;;;4980138;28;19921;-81
2022/05/31 10:36:57;;;;;;;;;;;;;;;;;;4978712;28;19921;-82
2022/05/31 10:39:24;;;;;;;;;;;;;;;;;;4992640;28;19917;-82
2022/05/31 10:41:50;;;;;;;;;;;;;;;;;;4983354;28;19921;-83
2022/05/31 10:44:16;;;;;;;;;;;;;;;;;;4979188;28;19918;-81
2022/05/31 10:46:44;;;;;;;;;;;;;;;;;;4989710;28;20002;-82
2022/05/31 10:49:19;;;;;;;;;;;;;;;;;;4985670;28;20380;-82
2022/05/31 10:51:50;;;;;;;;;;;;;;;;;;5002481;28;19925;-83
2022/05/31 10:54:34;;;;;;;;;;;;;;;;;;4982614;28;20411;-81
2022/05/31 10:57:11;;;;;;;;;;;;;;;;;;5005627;28;20380;-82
2022/05/31 10:59:41;;;;;;;;;;;;;;;;;;4998502;28;19918;-83
2022/05/31 11:02:18;;;;;;;;;;;;;;;;;;4980434;28;19920;-83
2022/05/31 11:05:09;;;;;;;;;;;;;;;;;;4997661;28;19913;-85
2022/05/31 11:07:38;;;;;;;;;;;;;;;;;;4998869;28;20396;-85
2022/05/31 11:13:26;;;;;;;;;;;;;;;;;;4997685;28;19924;-84
2022/05/31 11:16:04;;;;;;;;;;;;;;;;;;5004535;28;20360;-81
2022/05/31 11:18:35;;;;;;;;;;;;;;;;;;4987983;28;20000;-81
2022/05/31 11:21:06;;;;;;;;;;;;;;;;;;4983302;28;19917;-82
2022/05/31 11:23:37;;;;;;;;;;;;;;;;;;4998008;28;19918;-83
2022/05/31 11:26:24;;;;;;;;;;;;;;;;;;4999442;28;19914;-84
2022/05/31 11:28:55;;;;;;;;;;;;;;;;;;4998035;28;20389;-83
2022/05/31 11:32:01;;;;;;;;;;;;;;;;;;4999018;28;19949;-83
2022/05/31 11:34:34;;;;;;;;;;;;;;;;;;4998939;28;21208;-85
2022/05/31 11:37:05;;;;;;;;;;;;;;;;;;5011623;28;19914;-84
2022/05/31 11:39:39;;;;;;;;;;;;;;;;;;4987781;28;20336;-81
2022/05/31 11:42:08;;;;;;;;;;;;;;;;;;5007624;28;20412;-83
2022/05/31 11:44:33;;;;;;;;;;;;;;;;;;4999405;28;19918;-82
2022/05/31 11:47:01;;;;;;;;;;;;;;;;;;5005892;28;20585;-82
2022/05/31 11:49:29;;;;;;;;;;;;;;;;;;5012462;28;20619;-80
2022/05/31 11:52:13;;;;;;;;;;;;;;;;;;5000647;28;19917;-82
2022/05/31 11:54:45;;;;;;;;;;;;;;;;;;5000851;28;20284;-82
2022/05/31 11:57:29;;;;;;;;;;;;;;;;;;4997695;28;19917;-81
2022/05/31 12:00:03;;;;;;;;;;;;;;;;;;4999542;28;20380;-81
2022/05/31 12:02:37;;;;;;;;;;;;;;;;;;4997246;28;20448;-81
2022/05/31 12:05:05;;;;;;;;;;;;;;;;;;4983072;28;19917;-84
2022/05/31 12:07:36;;;;;;;;;;;;;;;;;;4994992;28;19979;-82
2022/05/31 12:10:16;;;;;;;;;;;;;;;;;;4989584;28;19918;-82
2022/05/31 12:12:42;;;;;;;;;;;;;;;;;;4996138;28;19921;-82
2022/05/31 12:15:14;;;;;;;;;;;;;;;;;;4995256;28;19922;-84
2022/05/31 12:17:44;;;;;;;;;;;;;;;;;;4982007;28;19921;-83
2022/05/31 12:20:29;;;;;;;;;;;;;;;;;;4995406;28;20379;-84
2022/05/31 12:23:08;;;;;;;;;;;;;;;;;;4999294;28;19922;-83
2022/05/31 12:25:34;;;;;;;;;;;;;;;;;;4967414;28;19936;-83
2022/05/31 12:28:13;;;;;;;;;;;;;;;;;;4988891;28;20015;-82
2022/05/31 12:30:46;;;;;;;;;;;;;;;;;;5002643;28;19992;-81
2022/05/31 12:33:48;;;;;;;;;;;;;;;;;;4994626;28;19928;-85
2022/05/31 12:36:15;;;;;;;;;;;;;;;;;;4984346;28;20446;-83
2022/05/31 12:38:52;;;;;;;;;;;;;;;;;;4977783;28;20289;-82
2022/05/31 12:41:33;;;;;;;;;;;;;;;;;;4979147;28;20693;-86
2022/05/31 12:43:58;;;;;;;;;;;;;;;;;;4995222;28;20365;-85
2022/05/31 12:46:34;;;;;;;;;;;;;;;;;;4979055;28;19968;-83
2022/05/31 12:49:01;;;;;;;;;;;;;;;;;;4986930;28;19921;-83
2022/05/31 12:51:26;;;;;;;;;;;;;;;;;;4979535;28;19916;-86
2022/05/31 12:53:59;;;;;;;;;;;;;;;;;;4985467;28;19968;-84
2022/05/31 12:56:50;;;;;;;;;;;;;;;;;;4981662;28;19917;-84
2022/05/31 12:59:17;;;;;;;;;;;;;;;;;;4995050;28;20288;-83
2022/05/31 13:01:43;;;;;;;;;;;;;;;;;;5000228;28;20332;-83
2022/05/31 13:04:09;;;;;;;;;;;;;;;;;;4965301;28;20285;-83
2022/05/31 13:06:52;;;;;;;;;;;;;;;;;;4991330;28;19913;-82
2022/05/31 13:09:23;;;;;;;;;;;;;;;;;;4997383;28;19918;-84
2022/05/31 13:20:25;;;;;;;;;;;;;;;;;;4995566;28;20391;-83
2022/05/31 13:22:55;;;;;;;;;;;;;;;;;;4987901;28;20051;-84
2022/05/31 13:25:30;;;;;;;;;;;;;;;;;;4980450;28;20377;-84
2022/05/31 13:27:56;;;;;;;;;;;;;;;;;;4979798;28;19929;-84
2022/05/31 13:30:22;;;;;;;;;;;;;;;;;;4987421;28;19913;-83
2022/05/31 13:32:48;;;;;;;;;;;;;;;;;;4982237;28;19913;-83
2022/05/31 13:35:19;;;;;;;;;;;;;;;;;;4978665;28;19917;-83
2022/05/31 13:37:48;;;;;;;;;;;;;;;;;;4998868;28;19914;-85
2022/05/31 13:40:15;;;;;;;;;;;;;;;;;;4994335;28;19924;-83
2022/05/31 13:42:45;;;;;;;;;;;;;;;;;;4981763;28;19922;-84
2022/05/31 13:45:12;;;;;;;;;;;;;;;;;;4987092;28;19925;-81
2022/05/31 13:47:45;;;;;;;;;;;;;;;;;;4983484;28;19925;-84
2022/05/31 13:50:14;;;;;;;;;;;;;;;;;;4991721;28;19914;-82
2022/05/31 13:52:39;;;;;;;;;;;;;;;;;;4985705;28;19921;-81
2022/05/31 13:55:06;;;;;;;;;;;;;;;;;;4981318;28;20326;-81
2022/05/31 13:57:31;;;;;;;;;;;;;;;;;;4978281;28;19968;-82
2022/05/31 13:59:57;;;;;;;;;;;;;;;;;;4980056;28;20377;-85
2022/05/31 14:02:22;;;;;;;;;;;;;;;;;;4966673;28;19918;-83
2022/05/31 14:05:06;;;;;;;;;;;;;;;;;;4974760;28;19971;-84
2022/05/31 14:07:32;;;;;;;;;;;;;;;;;;4985770;28;19955;-83
2022/05/31 14:09:58;;;;;;;;;;;;;;;;;;4975500;28;20325;-83
2022/05/31 14:12:23;;;;;;;;;;;;;;;;;;4977980;28;19944;-84
2022/05/31 14:14:49;;;;;;;;;;;;;;;;;;4979611;28;20009;-83
2022/05/31 14:17:30;;;;;;;;;;;;;;;;;;4978801;28;20728;-83
2022/05/31 14:19:55;;;;;;;;;;;;;;;;;;4964276;28;19960;-84
2022/05/31 14:22:24;;;;;;;;;;;;;;;;;;4962223;28;19964;-83
2022/05/31 14:24:50;;;;;;;;;;;;;;;;;;4983742;28;20391;-83
2022/05/31 14:27:15;;;;;;;;;;;;;;;;;;4990695;28;20427;-81
2022/05/31 14:29:41;;;;;;;;;;;;;;;;;;4985578;28;19918;-80
2022/05/31 14:32:21;;;;;;;;;;;;;;;;;;4989602;28;19961;-80
2022/05/31 14:34:47;;;;;;;;;;;;;;;;;;4998072;28;19930;-81
2022/05/31 14:37:13;;;;;;;;;;;;;;;;;;4982327;28;19917;-81
2022/05/31 14:39:45;;;;;;;;;;;;;;;;;;4965901;28;19918;-82
2022/05/31 14:42:14;;;;;;;;;;;;;;;;;;5005799;28;20336;-82
2022/05/31 14:44:42;;;;;;;;;;;;;;;;;;4991985;28;19971;-81
2022/05/31 14:47:11;;;;;;;;;;;;;;;;;;4976042;28;19918;-81
2022/05/31 14:49:52;;;;;;;;;;;;;;;;;;4996463;28;19918;-81
2022/05/31 14:52:24;;;;;;;;;;;;;;;;;;5001452;28;19921;-80
2022/05/31 14:54:51;;;;;;;;;;;;;;;;;;4977953;28;20423;-81
2022/05/31 15:00:14;;;;;;;;;;;;;;;;;;5003801;28;19918;-81
2022/05/31 15:02:39;;;;;;;;;;;;;;;;;;4992922;28;19924;-81
2022/05/31 15:05:04;;;;;;;;;;;;;;;;;;4982803;28;20392;-82
2022/05/31 15:07:31;;;;;;;;;;;;;;;;;;4991936;28;19955;-82
2022/05/31 15:10:09;;;;;;;;;;;;;;;;;;4977513;28;19918;-85
2022/05/31 15:20:48;;;;;;;;;;;;;;;;;;4996050;28;19968;-80
2022/05/31 15:23:14;;;;;;;;;;;;;;;;;;4974602;28;19918;-81
2022/05/31 15:25:40;;;;;;;;;;;;;;;;;;4999430;28;19914;-79
2022/05/31 15:28:05;;;;;;;;;;;;;;;;;;4984482;28;20016;-80
2022/05/31 15:30:31;;;;;;;;;;;;;;;;;;5006463;28;20375;-81
2022/05/31 15:32:56;;;;;;;;;;;;;;;;;;4991650;28;19909;-79
2022/05/31 15:35:22;;;;;;;;;;;;;;;;;;4982318;28;19922;-79
2022/05/31 15:37:47;;;;;;;;;;;;;;;;;;4985489;28;19976;-79
2022/05/31 15:40:13;;;;;;;;;;;;;;;;;;4995061;28;19967;-80
2022/05/31 15:42:39;;;;;;;;;;;;;;;;;;4995931;28;19929;-82
2022/05/31 15:45:08;;;;;;;;;;;;;;;;;;5004524;28;19937;-81
2022/05/31 15:47:33;;;;;;;;;;;;;;;;;;4979655;28;19921;-80
2022/05/31 15:49:58;;;;;;;;;;;;;;;;;;4960977;28;19918;-80
2022/05/31 15:52:29;;;;;;;;;;;;;;;;;;4996933;28;19996;-80
2022/05/31 15:54:55;;;;;;;;;;;;;;;;;;4988512;28;19929;-80
2022/05/31 15:57:20;;;;;;;;;;;;;;;;;;4995242;28;20320;-80
2022/05/31 15:59:46;;;;;;;;;;;;;;;;;;4978958;28;19920;-80
2022/05/31 16:02:11;;;;;;;;;;;;;;;;;;4976428;28;19943;-80
2022/05/31 16:04:37;;;;;;;;;;;;;;;;;;4994140;28;20027;-80
2022/05/31 16:07:02;;;;;;;;;;;;;;;;;;4993537;28;20411;-80
2022/05/31 16:09:29;;;;;;;;;;;;;;;;;;4981692;28;19925;-81
2022/05/31 16:11:54;;;;;;;;;;;;;;;;;;4981086;28;20012;-81
2022/05/31 16:14:22;;;;;;;;;;;;;;;;;;4980601;28;20004;-80
2022/05/31 16:16:47;;;;;;;;;;;;;;;;;;4986877;28;19922;-79
2022/05/31 16:19:12;;;;;;;;;;;;;;;;;;4980446;28;19978;-80
2022/05/31 16:21:38;;;;;;;;;;;;;;;;;;4980721;28;19922;-79
2022/05/31 16:24:03;;;;;;;;;;;;;;;;;;4979795;28;19917;-89
2022/05/31 16:26:29;;;;;;;;;;;;;;;;;;4985786;28;19963;-84
2022/05/31 16:28:54;;;;;;;;;;;;;;;;;;4987230;28;19921;-84
2022/05/31 16:31:19;;;;;;;;;;;;;;;;;;5002507;28;20491;-86
2022/05/31 16:33:44;;;;;;;;;;;;;;;;;;4993049;28;19917;-86
2022/05/31 16:36:14;;;;;;;;;;;;;;;;;;4982197;28;19917;-88
2022/05/31 16:41:25;;;;;;;;;;;;;;;;;;4984440;28;20447;-78
2022/05/31 16:43:51;;;;;;;;;;;;;;;;;;4977829;28;19918;-80
2022/05/31 16:46:18;;;;;;;;;;;;;;;;;;4982144;28;19917;-79
2022/05/31 16:48:44;;;;;;;;;;;;;;;;;;5001953;28;20340;-78
2022/05/31 16:51:28;;;;;;;;;;;;;;;;;;4994606;28;19920;-77
2022/05/31 16:53:54;;;;;;;;;;;;;;;;;;5002824;28;20425;-78
2022/05/31 16:56:19;;;;;;;;;;;;;;;;;;4981420;28;19999;-77
2022/05/31 16:58:44;;;;;;;;;;;;;;;;;;4981243;28;20004;-77
2022/05/31 17:01:10;;;;;;;;;;;;;;;;;;4993902;28;20349;-77
2022/05/31 17:03:37;;;;;;;;;;;;;;;;;;4991271;28;19913;-78
2022/05/31 17:06:02;;;;;;;;;;;;;;;;;;5002409;28;19917;-77
2022/05/31 17:16:38;;;;;;;;;;;;;;;;;;5000590;28;19925;-77